createdAt,value
2022-11-18T00:00:29.527Z,75.75
2022-11-18T00:02:58.841Z,74.00
2022-11-18T00:05:28.081Z,74.75
2022-11-18T00:07:57.832Z,89.00
2022-11-18T00:10:27.219Z,76.00
2022-11-18T00:13:14.487Z,76.50
2022-11-18T00:15:44.102Z,75.00
2022-11-18T00:18:13.515Z,75.00
2022-11-18T00:20:43.335Z,75.50
2022-11-18T00:23:13.725Z,75.75
2022-11-18T00:25:42.961Z,74.00
2022-11-18T00:28:12.146Z,74.50
2022-11-18T00:30:41.465Z,75.25
2022-11-18T00:33:11.094Z,74.50
2022-11-18T00:35:40.299Z,78.75
2022-11-18T00:38:09.613Z,78.00
2022-11-18T00:40:38.898Z,74.25
2022-11-18T00:43:08.652Z,73.75
2022-11-18T00:45:37.922Z,79.25
2022-11-18T00:48:07.375Z,76.75
2022-11-18T00:50:37.016Z,75.75
2022-11-18T00:53:06.265Z,76.75
2022-11-18T00:55:35.562Z,76.50
2022-11-18T00:58:04.933Z,76.25
2022-11-18T01:00:34.192Z,82.00
2022-11-18T01:03:03.979Z,73.75
2022-11-18T01:05:34.070Z,71.25
2022-11-18T01:08:03.275Z,72.25
2022-11-18T01:10:32.488Z,78.25
2022-11-18T01:13:20.016Z,77.25
2022-11-18T01:15:51.298Z,83.25
2022-11-18T01:18:21.602Z,76.25
2022-11-18T01:20:50.975Z,76.25
2022-11-18T01:23:20.958Z,83.50
2022-11-18T01:25:51.241Z,92.00
2022-11-18T01:28:23.862Z,89.50
2022-11-18T01:30:53.685Z,84.00
2022-11-18T01:33:23.254Z,87.75
2022-11-18T01:35:52.530Z,79.25
2022-11-18T01:38:21.843Z,87.00
2022-11-18T01:40:51.124Z,79.00
2022-11-18T01:43:22.834Z,77.75
2022-11-18T01:45:55.325Z,74.75
2022-11-18T01:48:26.815Z,79.00
2022-11-18T01:51:02.863Z,73.50
2022-11-18T01:53:39.226Z,74.50
2022-11-18T01:56:11.169Z,76.00
2022-11-18T01:58:50.179Z,76.25
2022-11-18T02:01:20.314Z,78.00
2022-11-18T02:03:50.410Z,76.25
2022-11-18T02:06:20.015Z,75.75
2022-11-18T02:08:50.624Z,75.50
2022-11-18T02:11:37.903Z,76.00
2022-11-18T02:14:10.509Z,74.25
2022-11-18T02:16:42.647Z,73.00
2022-11-18T02:19:27.798Z,74.75
2022-11-18T02:22:15.511Z,73.00
2022-11-18T02:25:01.329Z,70.25
2022-11-18T02:27:30.688Z,75.50
2022-11-18T02:30:07.257Z,79.50
2022-11-18T02:32:42.815Z,84.00
2022-11-18T02:35:22.075Z,88.75
2022-11-18T02:37:54.937Z,82.00
2022-11-18T02:40:27.715Z,76.25
2022-11-18T02:43:00.238Z,86.00
2022-11-18T02:45:31.111Z,85.75
2022-11-18T02:48:04.614Z,79.75
2022-11-18T02:50:36.009Z,81.50
2022-11-18T02:53:07.220Z,85.50
2022-11-18T02:55:38.131Z,79.25
2022-11-18T02:58:08.185Z,80.25
2022-11-18T03:00:38.944Z,86.25
2022-11-18T03:03:43.656Z,85.75
2022-11-18T03:06:22.883Z,88.75
2022-11-18T03:09:10.912Z,85.00
2022-11-18T03:11:52.612Z,86.00
2022-11-18T03:14:31.171Z,85.25
2022-11-18T03:17:13.672Z,82.00
2022-11-18T03:19:55.214Z,97.25
2022-11-18T03:22:30.314Z,82.50
2022-11-18T03:25:11.244Z,79.25
2022-11-18T03:27:46.781Z,83.50
2022-11-18T03:30:19.560Z,77.25
2022-11-18T03:32:54.848Z,78.75
2022-11-18T03:35:26.610Z,85.75
2022-11-18T03:37:59.930Z,82.75
2022-11-18T03:40:32.779Z,86.50
2022-11-18T03:43:06.372Z,83.00
2022-11-18T03:45:50.637Z,84.00
2022-11-18T03:48:31.036Z,78.50
2022-11-18T03:51:07.704Z,82.75
2022-11-18T03:53:43.742Z,83.00
2022-11-18T03:56:20.584Z,82.50
2022-11-18T03:58:50.280Z,80.00
2022-11-18T04:01:30.206Z,77.25
2022-11-18T04:03:59.590Z,80.00
2022-11-18T04:06:41.083Z,77.00
2022-11-18T04:09:25.626Z,78.75
2022-11-18T04:12:06.573Z,77.50
2022-11-18T04:14:37.479Z,78.00
2022-11-18T04:17:12.006Z,83.75
2022-11-18T04:19:41.840Z,78.00
2022-11-18T04:22:12.874Z,80.00
2022-11-18T04:24:42.309Z,107.25
2022-11-18T04:27:11.690Z,101.00
2022-11-18T04:29:41.039Z,100.00
2022-11-18T04:32:10.338Z,89.50
2022-11-18T04:34:39.664Z,84.25
2022-11-18T04:37:09.904Z,94.75
2022-11-18T04:39:39.208Z,81.75
2022-11-18T04:42:08.504Z,92.00
2022-11-18T04:44:37.988Z,80.00
2022-11-18T04:47:08.151Z,84.50
2022-11-18T04:49:37.720Z,78.00
2022-11-18T04:52:07.209Z,76.25
2022-11-18T04:54:37.767Z,76.50
2022-11-18T04:57:07.231Z,79.50
2022-11-18T04:59:36.669Z,78.25
2022-11-18T05:02:06.689Z,76.75
2022-11-18T05:04:37.082Z,72.75
2022-11-18T05:07:07.775Z,77.75
2022-11-18T05:09:37.312Z,72.50
2022-11-18T05:12:24.720Z,72.75
2022-11-18T05:14:54.339Z,70.75
2022-11-18T05:17:23.823Z,70.25
2022-11-18T05:19:53.408Z,68.25
2022-11-18T05:22:22.886Z,69.75
2022-11-18T05:24:52.255Z,64.75
2022-11-18T05:27:21.781Z,66.75
2022-11-18T05:29:51.219Z,70.25
2022-11-18T05:32:20.882Z,67.50
2022-11-18T05:34:50.506Z,65.50
2022-11-18T05:37:20.023Z,70.25
2022-11-18T05:39:49.480Z,67.50
2022-11-18T05:42:36.710Z,66.75
2022-11-18T05:45:06.900Z,63.25
2022-11-18T05:47:56.079Z,67.00
2022-11-18T05:50:25.484Z,67.00
2022-11-18T05:52:55.004Z,72.50
2022-11-18T05:55:26.324Z,75.75
2022-11-18T05:57:55.785Z,69.25
2022-11-18T06:00:25.275Z,72.25
2022-11-18T06:02:55.984Z,69.00
2022-11-18T06:05:31.051Z,67.25
2022-11-18T06:08:00.804Z,66.50
2022-11-18T06:10:32.212Z,63.00
2022-11-18T06:13:04.110Z,65.25
2022-11-18T06:15:37.298Z,62.50
2022-11-18T06:18:15.396Z,64.75
2022-11-18T06:20:45.054Z,65.75
2022-11-18T06:23:15.297Z,64.75
2022-11-18T06:25:44.955Z,66.50
2022-11-18T06:28:15.781Z,58.75
2022-11-18T06:30:45.380Z,58.50
2022-11-18T06:33:14.767Z,66.25
2022-11-18T06:35:44.755Z,63.25
2022-11-18T06:38:14.326Z,66.25
2022-11-18T06:40:46.058Z,60.00
2022-11-18T06:43:33.343Z,53.25
2022-11-18T06:46:22.511Z,58.00
2022-11-18T06:48:52.358Z,62.00
2022-11-18T06:51:21.705Z,63.00
2022-11-18T06:53:51.091Z,59.50
2022-11-18T06:56:21.287Z,61.00
2022-11-18T06:58:54.874Z,53.75
2022-11-18T07:01:25.350Z,59.75
2022-11-18T07:03:54.861Z,62.50
2022-11-18T07:06:26.522Z,62.00
2022-11-18T07:08:55.967Z,59.75
2022-11-18T07:11:26.699Z,59.25
2022-11-18T07:13:56.111Z,60.75
2022-11-18T07:16:26.599Z,59.25
2022-11-18T07:18:56.358Z,57.00
2022-11-18T07:21:27.135Z,55.00
2022-11-18T07:23:57.138Z,59.00
2022-11-18T07:26:26.738Z,62.75
2022-11-18T07:28:56.149Z,59.25
2022-11-18T07:31:25.549Z,59.25
2022-11-18T07:33:57.542Z,58.00
2022-11-18T07:36:35.384Z,61.25
2022-11-18T07:39:06.380Z,60.00
2022-11-18T07:41:36.383Z,60.25
2022-11-18T07:44:06.207Z,60.50
2022-11-18T07:46:36.739Z,56.75
2022-11-18T07:49:07.802Z,56.50
2022-11-18T07:51:38.309Z,57.50
2022-11-18T07:54:09.948Z,60.00
2022-11-18T07:56:39.301Z,58.75
2022-11-18T07:59:09.305Z,61.00
2022-11-18T08:01:38.833Z,58.00
2022-11-18T08:04:15.498Z,60.75
2022-11-18T08:06:44.855Z,61.25
2022-11-18T08:09:14.222Z,64.00
2022-11-18T08:11:43.604Z,64.50
2022-11-18T08:14:12.915Z,66.50
2022-11-18T08:16:42.255Z,62.50
2022-11-18T08:19:11.597Z,65.25
2022-11-18T08:21:40.883Z,63.50
2022-11-18T08:24:11.887Z,64.00
2022-11-18T08:26:41.285Z,66.75
2022-11-18T08:29:10.716Z,63.25
2022-11-18T08:31:43.292Z,61.25
2022-11-18T08:34:13.931Z,60.25
2022-11-18T08:36:43.324Z,62.00
2022-11-18T08:39:13.384Z,62.75
2022-11-18T08:41:44.222Z,64.00
2022-11-18T08:44:14.496Z,58.00
2022-11-18T08:46:44.299Z,52.50
2022-11-18T08:49:13.868Z,57.75
2022-11-18T08:51:44.195Z,55.00
2022-11-18T08:54:14.447Z,54.75
2022-11-18T08:56:43.752Z,55.75
2022-11-18T08:59:13.970Z,54.00
2022-11-18T09:01:44.816Z,48.50
2022-11-18T09:04:14.549Z,52.75
2022-11-18T09:06:43.915Z,52.75
2022-11-18T09:09:13.297Z,56.75
2022-11-18T09:11:42.702Z,51.25
2022-11-18T09:17:02.730Z,58.75
2022-11-18T09:19:47.394Z,73.50
2022-11-18T09:22:18.444Z,70.50
2022-11-18T09:24:47.765Z,68.75
2022-11-18T09:27:17.711Z,75.25
2022-11-18T09:29:47.786Z,65.25
2022-11-18T09:32:17.155Z,72.25
2022-11-18T09:34:47.496Z,68.50
2022-11-18T09:37:17.014Z,71.00
2022-11-18T09:39:47.367Z,72.00
2022-11-18T09:42:32.169Z,65.50
2022-11-18T09:45:13.362Z,73.25
2022-11-18T09:47:44.383Z,73.25
2022-11-18T09:50:47.704Z,72.50
2022-11-18T09:53:10.938Z,73.75
2022-11-18T09:55:41.947Z,71.75
2022-11-18T09:58:19.012Z,69.00
2022-11-18T10:00:48.363Z,65.50
2022-11-18T10:03:29.815Z,65.75
2022-11-18T10:05:59.319Z,67.00
2022-11-18T10:08:41.039Z,67.00
2022-11-18T10:11:10.825Z,67.25
2022-11-18T10:13:59.718Z,68.00
2022-11-18T10:16:33.740Z,64.25
2022-11-18T10:19:12.982Z,62.75
2022-11-18T10:21:49.035Z,73.25
2022-11-18T10:24:21.494Z,80.00
2022-11-18T10:26:57.548Z,79.75
2022-11-18T10:29:28.288Z,70.75
2022-11-18T10:32:04.583Z,75.25
2022-11-18T10:34:36.267Z,70.25
2022-11-18T10:37:07.963Z,71.25
2022-11-18T10:39:53.313Z,73.75
2022-11-18T10:42:47.485Z,73.50
2022-11-18T10:45:23.596Z,122.75
2022-11-18T10:48:04.251Z,78.75
2022-11-18T10:50:44.587Z,69.00
2022-11-18T10:53:34.043Z,70.75
2022-11-18T10:56:05.412Z,69.50
2022-11-18T10:58:40.698Z,71.75
2022-11-18T11:01:31.209Z,66.75
2022-11-18T11:04:14.743Z,62.25
2022-11-18T11:06:45.200Z,64.25
2022-11-18T11:09:15.322Z,78.25
2022-11-18T11:11:56.974Z,76.00
2022-11-18T11:14:27.848Z,75.00
2022-11-18T11:17:09.691Z,73.25
2022-11-18T11:19:47.653Z,74.50
2022-11-18T11:22:19.063Z,72.25
2022-11-18T11:24:49.226Z,73.00
2022-11-18T11:30:25.707Z,81.50
2022-11-18T11:33:13.855Z,75.75
2022-11-18T11:35:57.300Z,75.00
2022-11-18T11:38:30.399Z,72.75
2022-11-18T11:41:03.422Z,70.25
2022-11-18T11:43:42.287Z,66.75
2022-11-18T11:46:13.559Z,66.50
2022-11-18T11:48:55.055Z,61.75
2022-11-18T11:51:28.278Z,70.00
2022-11-18T11:54:07.237Z,65.75
2022-11-18T11:57:01.109Z,64.00
2022-11-18T11:59:42.561Z,61.25
2022-11-18T12:02:31.253Z,59.00
2022-11-18T12:05:24.882Z,61.50
2022-11-18T12:07:59.715Z,60.25
2022-11-18T12:10:32.400Z,55.00
2022-11-18T12:13:14.364Z,57.25
2022-11-18T12:15:59.451Z,55.25
2022-11-18T12:18:29.929Z,52.50
2022-11-18T12:21:03.927Z,55.25
2022-11-18T12:23:36.791Z,59.75
2022-11-18T12:26:13.546Z,57.50
2022-11-18T12:28:47.447Z,57.50
2022-11-18T12:31:20.959Z,50.00
2022-11-18T12:33:51.456Z,55.25
2022-11-18T12:36:34.691Z,57.75
2022-11-18T12:39:33.643Z,53.00
2022-11-18T12:42:25.520Z,57.00
2022-11-18T12:44:55.953Z,58.00
2022-11-18T12:47:44.042Z,58.00
2022-11-18T12:50:17.113Z,57.50
2022-11-18T12:52:48.083Z,62.00
2022-11-18T12:55:23.908Z,58.50
2022-11-18T12:57:54.216Z,59.00
2022-11-18T13:00:26.914Z,61.50
2022-11-18T13:02:58.190Z,56.75
2022-11-18T13:05:32.911Z,59.25
2022-11-18T13:08:17.032Z,61.25
2022-11-18T13:10:50.497Z,57.25
2022-11-18T13:13:29.529Z,61.25
2022-11-18T13:16:22.294Z,62.00
2022-11-18T13:18:53.715Z,62.50
2022-11-18T13:21:49.591Z,57.50
2022-11-18T13:24:22.311Z,63.75
2022-11-18T13:26:59.494Z,62.25
2022-11-18T13:29:29.304Z,62.75
2022-11-18T13:32:05.321Z,61.00
2022-11-18T13:34:43.822Z,63.75
2022-11-18T13:37:22.351Z,65.00
2022-11-18T13:39:52.417Z,65.00
2022-11-18T13:42:23.626Z,61.50
2022-11-18T13:44:58.059Z,62.75
2022-11-18T13:47:35.461Z,64.75
2022-11-18T13:50:08.844Z,59.50
2022-11-18T13:52:51.247Z,59.75
2022-11-18T13:55:25.823Z,57.50
2022-11-18T13:58:05.250Z,63.75
2022-11-18T14:00:36.642Z,57.50
2022-11-18T14:03:18.615Z,59.75
2022-11-18T14:05:55.032Z,60.00
2022-11-18T14:08:31.439Z,57.25
2022-11-18T14:11:01.829Z,62.50
2022-11-18T14:13:50.595Z,60.25
2022-11-18T14:16:20.567Z,60.75
2022-11-18T14:18:53.281Z,62.75
2022-11-18T14:21:42.258Z,58.50
2022-11-18T14:24:16.791Z,54.75
2022-11-18T14:26:46.829Z,57.75
2022-11-18T14:29:22.407Z,63.25
2022-11-18T14:32:07.358Z,59.00
2022-11-18T14:34:37.214Z,59.75
2022-11-18T14:37:18.397Z,65.25
2022-11-18T14:39:56.585Z,64.00
2022-11-18T14:42:27.093Z,67.00
2022-11-18T14:44:56.871Z,68.00
2022-11-18T14:47:30.863Z,68.50
2022-11-18T14:50:00.738Z,64.50
2022-11-18T14:52:30.600Z,61.00
2022-11-18T14:55:08.906Z,61.25
2022-11-18T14:57:42.247Z,63.25
2022-11-18T15:00:17.201Z,66.50
2022-11-18T15:02:47.468Z,56.50
2022-11-18T15:05:17.609Z,59.50
2022-11-18T15:07:47.846Z,58.50
2022-11-18T15:10:20.638Z,64.50
2022-11-18T15:12:51.106Z,59.25
2022-11-18T15:15:22.272Z,61.75
2022-11-18T15:17:54.107Z,60.00
2022-11-18T15:20:25.191Z,60.00
2022-11-18T15:22:55.180Z,60.75
2022-11-18T15:25:24.910Z,59.50
2022-11-18T15:27:55.136Z,60.25
2022-11-18T15:30:25.163Z,62.25
2022-11-18T15:32:54.784Z,60.50
2022-11-18T15:35:27.461Z,60.75
2022-11-18T15:37:57.730Z,61.00
2022-11-18T15:40:31.518Z,61.75
2022-11-18T15:43:04.831Z,61.25
2022-11-18T15:45:35.808Z,59.75
2022-11-18T15:48:06.667Z,59.00
2022-11-18T15:50:36.364Z,61.00
2022-11-18T15:53:05.963Z,61.00
2022-11-18T15:55:35.957Z,60.25
2022-11-18T15:58:05.901Z,59.50
2022-11-18T16:00:35.745Z,55.75
2022-11-18T16:03:05.521Z,59.50
2022-11-18T16:05:35.752Z,56.75
2022-11-18T16:08:05.525Z,61.50
2022-11-18T16:10:53.738Z,59.25
2022-11-18T16:13:23.749Z,55.50
2022-11-18T16:15:53.679Z,61.25
2022-11-18T16:18:28.270Z,57.00
2022-11-18T16:21:03.073Z,54.00
2022-11-18T16:23:33.031Z,58.25
2022-11-18T16:26:02.711Z,58.00
2022-11-18T16:28:32.451Z,61.00
2022-11-18T16:31:20.213Z,57.50
2022-11-18T16:33:50.469Z,57.25
2022-11-18T16:36:20.312Z,52.75
2022-11-18T16:38:50.112Z,59.75
2022-11-18T16:41:35.140Z,55.25
2022-11-18T16:44:07.529Z,56.75
2022-11-18T16:46:39.838Z,59.25
2022-11-18T16:49:13.148Z,55.25
2022-11-18T16:51:44.577Z,56.00
2022-11-18T16:54:21.245Z,57.50
2022-11-18T16:56:52.140Z,55.50
2022-11-18T16:59:23.461Z,58.25
2022-11-18T17:01:54.292Z,53.00
2022-11-18T17:04:25.706Z,57.75
2022-11-18T17:06:56.651Z,57.75
2022-11-18T17:09:26.175Z,57.25
2022-11-18T17:11:56.333Z,51.50
2022-11-18T17:14:26.177Z,54.50
2022-11-18T17:16:55.535Z,55.25
2022-11-18T17:19:26.402Z,55.75
2022-11-18T17:21:55.833Z,55.25
2022-11-18T17:24:25.758Z,55.25
2022-11-18T17:26:55.734Z,51.75
2022-11-18T17:29:24.943Z,48.50
2022-11-18T17:31:55.093Z,57.00
2022-11-18T17:34:24.404Z,56.25
2022-11-18T17:36:53.648Z,54.25
2022-11-18T17:39:22.887Z,55.75
2022-11-18T17:42:10.301Z,52.50
2022-11-18T17:44:39.813Z,54.75
2022-11-18T17:47:09.164Z,55.50
2022-11-18T17:49:38.599Z,56.00
2022-11-18T17:52:07.991Z,55.50
2022-11-18T17:54:37.330Z,51.50
2022-11-18T17:57:06.603Z,54.75
2022-11-18T17:59:35.869Z,56.00
2022-11-18T18:02:05.216Z,50.50
2022-11-18T18:04:35.042Z,53.75
2022-11-18T18:07:04.382Z,53.50
2022-11-18T18:09:33.711Z,48.25
2022-11-18T18:12:22.991Z,55.25
2022-11-18T18:14:53.248Z,51.75
2022-11-18T18:17:22.571Z,49.50
2022-11-18T18:19:51.776Z,53.75
2022-11-18T18:22:21.058Z,48.50
2022-11-18T18:24:50.389Z,56.00
2022-11-18T18:27:19.662Z,56.00
2022-11-18T18:29:48.923Z,49.25
2022-11-18T18:32:18.166Z,51.00
2022-11-18T18:34:47.542Z,51.50
2022-11-18T18:37:16.817Z,55.50
2022-11-18T18:39:46.075Z,49.50
2022-11-18T18:42:15.829Z,50.25
2022-11-18T18:45:03.313Z,49.25
2022-11-18T18:47:35.774Z,49.50
2022-11-18T18:50:05.539Z,49.00
2022-11-18T18:52:35.136Z,48.00
2022-11-18T18:55:04.840Z,50.00
2022-11-18T18:57:34.150Z,51.75
2022-11-18T19:00:03.498Z,46.25
2022-11-18T19:02:33.786Z,51.00
2022-11-18T19:05:03.113Z,47.50
2022-11-18T19:07:32.739Z,53.50
2022-11-18T19:10:02.129Z,52.00
2022-11-18T19:12:52.847Z,48.75
2022-11-18T19:15:24.376Z,48.25
2022-11-18T19:17:53.861Z,49.50
2022-11-18T19:20:35.246Z,46.00
2022-11-18T19:23:10.094Z,46.50
2022-11-18T19:25:40.080Z,51.25
2022-11-18T19:28:10.356Z,46.75
2022-11-18T19:30:39.652Z,49.75
2022-11-18T19:33:08.996Z,51.50
2022-11-18T19:35:38.583Z,44.25
2022-11-18T19:38:08.650Z,51.25
2022-11-18T19:40:38.098Z,48.25
2022-11-18T19:43:07.382Z,47.00
2022-11-18T19:45:36.692Z,51.25
2022-11-18T19:48:06.104Z,50.50
2022-11-18T19:50:35.338Z,49.00
2022-11-18T19:53:24.289Z,47.25
2022-11-18T19:55:57.270Z,51.75
2022-11-18T19:58:26.895Z,47.00
2022-11-18T20:00:56.557Z,45.75
2022-11-18T20:03:25.884Z,50.25
2022-11-18T20:05:55.329Z,52.50
2022-11-18T20:08:26.206Z,45.00
2022-11-18T20:10:56.579Z,53.50
2022-11-18T20:13:25.883Z,47.50
2022-11-18T20:15:55.719Z,49.50
2022-11-18T20:18:26.522Z,47.75
2022-11-18T20:20:56.003Z,50.75
2022-11-18T20:23:25.412Z,47.75
2022-11-18T20:25:54.680Z,48.50
2022-11-18T20:28:23.963Z,43.75
2022-11-18T20:30:59.582Z,46.25
2022-11-18T20:33:28.913Z,47.00
2022-11-18T20:35:58.131Z,50.50
2022-11-18T20:38:27.409Z,47.50
2022-11-18T20:41:01.261Z,49.00
2022-11-18T20:43:30.607Z,48.00
2022-11-18T20:46:01.738Z,48.75
2022-11-18T20:48:34.284Z,49.75
2022-11-18T20:51:12.047Z,49.00
2022-11-18T20:53:43.394Z,47.25
2022-11-18T20:56:19.757Z,47.25
2022-11-18T20:58:49.218Z,47.00
2022-11-18T21:01:21.234Z,47.00
2022-11-18T21:03:54.819Z,48.25
2022-11-18T21:06:25.109Z,44.25
2022-11-18T21:09:01.629Z,40.25
2022-11-18T21:11:31.433Z,43.50
2022-11-18T21:14:23.308Z,45.50
2022-11-18T21:16:59.788Z,46.25
2022-11-18T21:19:29.535Z,54.00
2022-11-18T21:21:58.939Z,50.50
2022-11-18T21:24:32.220Z,44.50
2022-11-18T21:27:02.897Z,45.25
2022-11-18T21:29:33.456Z,48.00
2022-11-18T21:32:05.335Z,49.75
2022-11-18T21:34:35.140Z,52.00
2022-11-18T21:37:06.698Z,45.25
2022-11-18T21:39:36.064Z,47.50
2022-11-18T21:42:05.544Z,45.00
2022-11-18T21:44:35.009Z,46.75
2022-11-18T21:47:04.310Z,41.50
2022-11-18T21:49:33.704Z,42.00
2022-11-18T21:52:02.964Z,45.50
2022-11-18T21:54:33.638Z,45.75
2022-11-18T21:57:03.245Z,42.25
2022-11-18T21:59:32.612Z,42.75
2022-11-18T22:02:01.883Z,46.25
2022-11-18T22:05:06.274Z,42.25
2022-11-18T22:07:35.816Z,46.50
2022-11-18T22:10:05.196Z,47.75
2022-11-18T22:12:34.784Z,52.50
2022-11-18T22:15:04.362Z,48.50
2022-11-18T22:17:33.626Z,46.75
2022-11-18T22:20:03.017Z,47.50
2022-11-18T22:22:32.591Z,45.00
2022-11-18T22:25:02.226Z,45.75
2022-11-18T22:27:32.448Z,44.00
2022-11-18T22:30:01.675Z,41.50
2022-11-18T22:32:30.921Z,51.00
2022-11-18T22:35:00.301Z,47.00
2022-11-18T22:37:29.759Z,44.50
2022-11-18T22:39:59.383Z,42.75
2022-11-18T22:42:46.502Z,47.75
2022-11-18T22:45:17.241Z,48.75
2022-11-18T22:47:47.130Z,45.50
2022-11-18T22:50:18.039Z,47.75
2022-11-18T22:52:48.369Z,46.00
2022-11-18T22:55:17.901Z,47.75
2022-11-18T22:57:47.472Z,51.50
2022-11-18T23:00:17.594Z,49.00
2022-11-18T23:02:47.039Z,46.75
2022-11-18T23:05:16.568Z,52.25
2022-11-18T23:07:46.057Z,47.50
2022-11-18T23:10:15.663Z,50.75
2022-11-18T23:13:03.075Z,53.00
2022-11-18T23:15:34.587Z,49.25
2022-11-18T23:18:07.436Z,50.00
2022-11-18T23:20:41.370Z,47.25
2022-11-18T23:23:10.805Z,44.00
2022-11-18T23:25:40.442Z,48.25
2022-11-18T23:28:10.189Z,49.75
2022-11-18T23:30:39.660Z,52.75
2022-11-18T23:33:09.030Z,51.25
2022-11-18T23:35:38.607Z,49.00
2022-11-18T23:38:08.083Z,49.25
2022-11-18T23:40:37.656Z,49.50
2022-11-18T23:43:06.969Z,53.50
2022-11-18T23:45:36.474Z,50.50
2022-11-18T23:48:05.999Z,48.50
2022-11-18T23:50:39.085Z,49.00
2022-11-18T23:53:09.109Z,45.75
2022-11-18T23:55:38.553Z,50.00
2022-11-18T23:58:07.836Z,46.75
